Time;durP1;ratioP1;P1;durP2;ratioP2;P2;SDS_P1;SDS_P2;PMS_P1;PMS_P2;Temp;Humidity;BMP_temperature;BMP_pressure;BME280_temperature;BME280_humidity;BME280_pressure;Samples;Min_cycle;Max_cycle;Signal;HPM_P1;HPM_P2
2023/01/14 00:01:04;;;;;;;21.48;3.58;;;7.10;97.80;;;;;;5090958;28;20403;-92
2023/01/14 00:03:31;;;;;;;24.10;3.60;;;7.00;97.70;;;;;;5090700;28;20434;-92
2023/01/14 00:05:58;;;;;;;24.38;3.38;;;7.00;97.70;;;;;;5090258;28;20406;-92
2023/01/14 00:08:25;;;;;;;21.83;3.33;;;6.90;97.80;;;;;;5108252;28;20446;-92
2023/01/14 00:10:50;;;;;;;19.17;3.00;;;6.90;97.80;;;;;;5090090;28;20419;-92
2023/01/14 00:13:16;;;;;;;22.80;2.88;;;7.00;97.90;;;;;;5108100;28;20399;-91
2023/01/14 00:15:53;;;;;;;25.90;2.90;;;6.90;97.90;;;;;;5106895;28;21011;-91
2023/01/14 00:18:19;;;;;;;22.67;3.23;;;6.90;97.90;;;;;;5107513;28;20407;-93
2023/01/14 00:20:58;;;;;;;17.90;2.55;;;6.90;98.20;;;;;;5091251;28;20505;-91
2023/01/14 00:23:24;;;;;;;17.55;2.78;;;6.90;97.80;;;;;;5090269;28;20854;-92
2023/01/14 00:25:50;;;;;;;19.48;3.22;;;6.90;97.90;;;;;;5090677;28;20441;-92
2023/01/14 00:28:16;;;;;;;18.30;2.50;;;7.00;97.80;;;;;;5089866;28;20432;-91
2023/01/14 00:30:42;;;;;;;18.70;2.67;;;7.00;97.70;;;;;;5090763;28;20405;-90
2023/01/14 00:33:08;;;;;;;23.83;3.00;;;7.10;97.70;;;;;;5090371;28;20407;-91
2023/01/14 00:35:34;;;;;;;19.53;2.63;;;7.10;97.60;;;;;;5090171;28;20430;-91
2023/01/14 00:37:59;;;;;;;18.90;2.43;;;7.20;97.60;;;;;;5090725;28;20417;-90
2023/01/14 00:40:25;;;;;;;17.80;2.13;;;7.20;97.40;;;;;;5089601;28;20440;-91
2023/01/14 00:42:50;;;;;;;18.65;2.42;;;7.20;97.10;;;;;;5090502;28;20402;-91
2023/01/14 00:45:16;;;;;;;17.33;2.57;;;7.30;97.00;;;;;;5089545;28;20494;-92
2023/01/14 00:47:42;;;;;;;19.00;2.70;;;7.30;96.90;;;;;;5091201;28;21252;-91
2023/01/14 00:50:10;;;;;;;20.50;2.28;;;7.30;96.90;;;;;;5106453;28;20859;-92
2023/01/14 00:52:36;;;;;;;17.60;2.13;;;7.30;96.70;;;;;;5090471;28;20406;-92
2023/01/14 00:55:01;;;;;;;17.25;2.30;;;7.40;96.80;;;;;;5089657;28;20422;-92
2023/01/14 00:57:27;;;;;;;20.93;3.03;;;7.40;96.80;;;;;;5089742;28;20452;-91
2023/01/14 00:59:53;;;;;;;19.20;2.47;;;7.50;96.60;;;;;;5108209;28;20402;-92
2023/01/14 01:02:18;;;;;;;18.25;2.38;;;7.40;96.60;;;;;;5094183;27;20407;-91
2023/01/14 01:04:44;;;;;;;18.73;2.40;;;7.40;96.50;;;;;;5094130;27;20884;-91
2023/01/14 01:07:10;;;;;;;18.67;2.30;;;7.40;96.50;;;;;;5109530;27;20403;-93
2023/01/14 01:09:35;;;;;;;17.42;2.53;;;7.40;96.50;;;;;;5093339;27;20753;-90
2023/01/14 01:12:01;;;;;;;20.45;2.65;;;7.50;96.40;;;;;;5110197;27;20460;-92
2023/01/14 01:14:26;;;;;;;16.87;2.10;;;7.40;96.30;;;;;;5093968;27;20425;-91
2023/01/14 01:16:52;;;;;;;22.17;3.13;;;7.40;96.30;;;;;;5093955;27;20792;-91
2023/01/14 01:19:17;;;;;;;20.33;2.70;;;7.50;96.40;;;;;;5109937;27;20442;-92
2023/01/14 01:21:43;;;;;;;19.70;2.77;;;7.50;96.20;;;;;;5093644;27;20735;-91
2023/01/14 01:24:09;;;;;;;19.33;2.88;;;7.50;96.30;;;;;;5109455;27;20391;-92
2023/01/14 01:26:34;;;;;;;21.13;2.83;;;7.50;96.20;;;;;;5093783;27;20748;-91
2023/01/14 01:29:00;;;;;;;20.37;3.07;;;7.50;96.10;;;;;;5092528;27;20893;-91
2023/01/14 01:31:27;;;;;;;21.63;3.05;;;7.50;95.90;;;;;;5093649;27;20406;-91
2023/01/14 01:33:53;;;;;;;21.98;3.20;;;7.50;95.90;;;;;;5092765;27;20455;-91
2023/01/14 01:36:24;;;;;;;21.10;3.03;;;7.60;95.90;;;;;;5093031;27;20418;-92
2023/01/14 01:38:50;;;;;;;23.80;3.15;;;7.50;95.80;;;;;;5093449;27;20411;-91
2023/01/14 01:41:20;;;;;;;17.67;2.50;;;7.50;95.80;;;;;;5092713;27;20478;-92
2023/01/14 01:44:15;;;;;;;24.45;3.42;;;7.40;95.70;;;;;;5093302;27;20492;-92
2023/01/14 01:46:42;;;;;;;22.23;3.20;;;7.40;95.70;;;;;;5036540;27;20411;-91
2023/01/14 01:49:24;;;;;;;21.65;3.05;;;7.40;95.80;;;;;;5093633;27;20421;-91
2023/01/14 01:51:57;;;;;;;24.95;3.22;;;7.40;95.60;;;;;;5110123;27;21061;-92
2023/01/14 01:54:27;;;;;;;22.40;3.13;;;7.40;95.70;;;;;;5092606;27;20494;-90
2023/01/14 01:56:54;;;;;;;24.63;3.13;;;7.40;95.80;;;;;;5093273;27;20440;-92
2023/01/14 01:59:27;;;;;;;23.85;3.50;;;7.40;95.90;;;;;;5109096;27;20786;-89
2023/01/14 02:01:54;;;;;;;22.23;3.35;;;7.40;95.60;;;;;;5093130;27;20430;-91
2023/01/14 02:04:20;;;;;;;22.20;3.53;;;7.40;95.70;;;;;;5109702;27;20788;-91
2023/01/14 02:06:46;;;;;;;21.23;2.63;;;7.50;95.60;;;;;;5092401;27;20407;-88
2023/01/14 02:09:12;;;;;;;22.33;3.03;;;7.50;95.50;;;;;;5092449;27;20414;-91
2023/01/14 02:11:57;;;;;;;20.30;3.28;;;7.50;95.50;;;;;;5091842;27;20397;-91
2023/01/14 02:14:22;;;;;;;15.57;2.45;;;7.50;95.40;;;;;;5092980;27;20899;-91
2023/01/14 02:17:02;;;;;;;21.38;2.97;;;7.40;95.40;;;;;;5109280;27;20489;-91
2023/01/14 02:19:46;;;;;;;16.48;2.97;;;7.40;95.40;;;;;;5092800;27;20415;-91
2023/01/14 02:22:33;;;;;;;23.65;2.67;;;7.40;95.60;;;;;;5092188;27;20421;-91
2023/01/14 02:25:45;;;;;;;19.58;2.72;;;7.30;95.20;;;;;;5091443;27;20888;-91
2023/01/14 02:28:19;;;;;;;24.20;2.95;;;7.30;95.20;;;;;;5092847;27;20399;-90
2023/01/14 02:30:48;;;;;;;23.48;3.20;;;7.30;95.40;;;;;;5092433;27;20432;-92
2023/01/14 02:33:19;;;;;;;24.38;2.70;;;7.20;95.40;;;;;;5091744;27;20413;-91
2023/01/14 02:35:54;;;;;;;22.13;3.00;;;7.20;95.50;;;;;;5092684;27;20505;-91
2023/01/14 02:38:31;;;;;;;20.50;2.55;;;7.20;95.40;;;;;;5091100;27;20492;-91
2023/01/14 02:41:08;;;;;;;23.42;2.85;;;7.00;95.70;;;;;;5092710;27;20757;-90
2023/01/14 02:44:12;;;;;;;18.90;2.47;;;7.00;95.40;;;;;;5092271;27;20449;-90
2023/01/14 02:46:46;;;;;;;22.80;2.53;;;7.10;95.40;;;;;;5108700;27;20924;-91
2023/01/14 02:49:17;;;;;;;20.60;2.85;;;7.00;95.50;;;;;;5092438;27;20449;-91
2023/01/14 02:51:44;;;;;;;21.77;2.58;;;7.00;95.50;;;;;;5091468;27;20394;-92
2023/01/14 02:54:11;;;;;;;17.50;2.97;;;7.20;95.50;;;;;;5091665;27;20420;-92
2023/01/14 02:56:37;;;;;;;21.48;3.05;;;7.10;95.50;;;;;;5092159;27;20487;-91
2023/01/14 02:59:17;;;;;;;20.17;2.40;;;7.10;95.50;;;;;;5090855;27;20477;-91
2023/01/14 03:02:04;;;;;;;18.88;3.05;;;7.00;95.50;;;;;;5092225;27;20973;-90
2023/01/14 03:04:56;;;;;;;20.00;3.35;;;7.10;95.40;;;;;;5108256;27;20415;-90
2023/01/14 03:07:48;;;;;;;23.15;3.15;;;7.10;95.40;;;;;;5091096;27;20943;-90
2023/01/14 03:10:24;;;;;;;21.67;2.77;;;7.10;95.40;;;;;;5091982;27;20417;-92
2023/01/14 03:13:11;;;;;;;22.40;3.17;;;7.00;95.50;;;;;;5090643;27;20761;-91
2023/01/14 03:15:58;;;;;;;21.88;2.85;;;7.00;95.50;;;;;;5091668;27;20486;-91
2023/01/14 03:18:51;;;;;;;19.27;2.78;;;6.90;95.60;;;;;;5106153;27;20413;-90
2023/01/14 03:21:23;;;;;;;18.85;2.50;;;6.80;95.60;;;;;;5077267;27;20912;-90
2023/01/14 03:23:54;;;;;;;21.27;2.88;;;6.70;95.60;;;;;;5090631;28;20889;-90
2023/01/14 03:26:24;;;;;;;21.97;2.87;;;6.60;95.60;;;;;;5089268;27;20395;-91
2023/01/14 03:28:50;;;;;;;22.05;2.97;;;6.60;95.80;;;;;;5089890;27;20900;-89
2023/01/14 03:31:21;;;;;;;25.70;3.45;;;6.60;95.90;;;;;;5089824;27;20390;-90
2023/01/14 03:33:52;;;;;;;18.45;2.65;;;6.60;96.00;;;;;;5090388;27;20489;-92
2023/01/14 03:36:20;;;;;;;21.05;3.35;;;6.60;96.10;;;;;;5090907;27;20427;-91
2023/01/14 03:39:05;;;;;;;22.77;2.63;;;6.40;96.00;;;;;;5106738;27;20402;-90
2023/01/14 03:44:43;;;;;;;19.55;3.13;;;6.30;96.10;;;;;;5107678;27;20407;-90
2023/01/14 03:47:09;;;;;;;18.98;2.38;;;6.20;96.20;;;;;;5090293;27;21048;-90
2023/01/14 03:49:35;;;;;;;20.80;2.92;;;6.20;96.30;;;;;;5091280;27;20441;-91
2023/01/14 03:52:15;;;;;;;24.57;3.20;;;6.10;96.30;;;;;;5090166;27;20402;-91
2023/01/14 03:55:03;;;;;;;24.13;3.30;;;6.10;96.40;;;;;;5108001;28;20422;-88
2023/01/14 03:57:56;;;;;;;24.45;2.90;;;6.10;96.40;;;;;;5090492;27;20490;-90
2023/01/14 04:00:28;;;;;;;24.40;2.93;;;6.10;96.40;;;;;;5106373;27;20402;-91
2023/01/14 04:02:57;;;;;;;21.17;2.30;;;6.00;96.40;;;;;;5090744;28;20456;-90
2023/01/14 04:05:23;;;;;;;23.73;3.00;;;6.00;96.40;;;;;;5090195;28;20397;-90
2023/01/14 04:07:51;;;;;;;22.27;3.17;;;6.00;96.50;;;;;;5090363;28;20399;-90
2023/01/14 04:10:17;;;;;;;19.75;2.67;;;6.00;96.50;;;;;;5090578;28;20402;-91
2023/01/14 04:15:28;;;;;;;28.95;3.33;;;6.00;96.40;;;;;;5107988;28;20786;-91
2023/01/14 04:17:53;;;;;;;19.95;2.80;;;5.90;96.40;;;;;;5089549;28;20482;-91
2023/01/14 04:20:19;;;;;;;25.60;3.40;;;6.00;96.40;;;;;;5090911;28;20810;-90
2023/01/14 04:22:45;;;;;;;20.87;3.23;;;6.00;96.40;;;;;;5106916;28;20924;-89
2023/01/14 04:25:10;;;;;;;18.50;3.03;;;6.00;96.40;;;;;;5090746;28;20394;-90
2023/01/14 04:27:36;;;;;;;22.77;3.63;;;6.00;96.40;;;;;;5090090;28;20399;-89
2023/01/14 04:30:02;;;;;;;26.27;3.93;;;6.00;96.50;;;;;;5089910;28;20397;-91
2023/01/14 04:32:27;;;;;;;24.63;3.27;;;6.00;96.50;;;;;;5090804;28;20394;-88
2023/01/14 04:34:53;;;;;;;18.23;3.17;;;6.00;96.50;;;;;;5089503;27;20422;-89
2023/01/14 04:37:19;;;;;;;20.58;3.08;;;6.10;96.30;;;;;;5111375;27;21204;-90
2023/01/14 04:39:45;;;;;;;22.30;3.10;;;6.10;96.50;;;;;;5093976;27;20830;-91
2023/01/14 04:42:26;;;;;;;20.13;3.15;;;6.10;96.50;;;;;;5094560;27;20398;-91
2023/01/14 04:44:56;;;;;;;20.52;2.83;;;6.10;96.50;;;;;;5094148;27;20414;-90
2023/01/14 04:47:22;;;;;;;24.50;2.90;;;6.10;96.60;;;;;;5093370;27;20401;-89
2023/01/14 04:49:48;;;;;;;25.17;2.97;;;6.10;96.60;;;;;;5111609;27;20497;-91
2023/01/14 04:52:13;;;;;;;18.15;2.70;;;6.20;96.60;;;;;;5093513;27;20913;-91
2023/01/14 04:54:39;;;;;;;21.88;3.35;;;6.10;96.50;;;;;;5094681;27;20777;-90
2023/01/14 04:57:05;;;;;;;24.43;2.97;;;6.10;96.50;;;;;;5110467;27;20395;-90
2023/01/14 04:59:30;;;;;;;22.23;3.17;;;6.10;96.50;;;;;;5094069;27;20874;-91
2023/01/14 05:01:56;;;;;;;23.80;3.35;;;6.00;96.50;;;;;;5094138;27;20398;-90
2023/01/14 05:04:22;;;;;;;15.82;2.22;;;6.10;96.50;;;;;;5110739;27;20387;-92
2023/01/14 05:06:48;;;;;;;21.25;2.65;;;6.00;96.60;;;;;;5093660;27;20939;-90
2023/01/14 05:09:14;;;;;;;19.73;2.43;;;6.00;96.60;;;;;;5093515;27;20405;-91
2023/01/14 05:11:39;;;;;;;20.15;2.42;;;6.00;96.60;;;;;;5094091;27;20398;-90
2023/01/14 05:14:05;;;;;;;19.55;2.80;;;6.00;96.70;;;;;;5092857;27;20391;-91
2023/01/14 05:16:30;;;;;;;20.02;2.85;;;6.00;96.70;;;;;;5093634;27;20427;-91
2023/01/14 05:18:56;;;;;;;20.47;3.00;;;6.00;96.70;;;;;;5093258;27;21042;-90
2023/01/14 05:21:22;;;;;;;22.35;2.15;;;6.10;96.70;;;;;;5093769;27;20405;-91
2023/01/14 05:23:48;;;;;;;17.40;2.53;;;5.90;96.70;;;;;;5093461;27;20403;-91
2023/01/14 05:26:14;;;;;;;23.15;2.53;;;5.90;96.70;;;;;;5092579;27;20497;-89
2023/01/14 05:28:39;;;;;;;21.38;2.35;;;5.90;96.70;;;;;;5093578;27;20462;-91
2023/01/14 05:31:05;;;;;;;20.97;2.77;;;6.20;96.80;;;;;;5092740;27;20445;-90
2023/01/14 05:33:31;;;;;;;20.80;2.90;;;6.10;96.80;;;;;;5093768;27;20395;-91
2023/01/14 05:35:58;;;;;;;18.00;2.47;;;6.00;96.80;;;;;;5092319;27;20951;-91
2023/01/14 05:38:24;;;;;;;18.95;2.20;;;5.90;96.80;;;;;;5093882;27;20439;-90
2023/01/14 05:40:50;;;;;;;15.88;2.45;;;5.90;96.90;;;;;;5093141;27;20498;-89
2023/01/14 05:46:05;;;;;;;16.67;2.40;;;5.90;97.00;;;;;;5110517;27;20406;-90
2023/01/14 05:48:31;;;;;;;21.13;2.83;;;5.90;97.10;;;;;;5091420;27;20428;-90
2023/01/14 05:50:58;;;;;;;17.60;2.50;;;5.90;97.10;;;;;;5093264;27;20405;-90
2023/01/14 05:53:26;;;;;;;19.10;3.10;;;6.10;97.20;;;;;;5092396;27;20901;-91
2023/01/14 05:55:55;;;;;;;18.10;2.80;;;5.90;97.30;;;;;;5093017;27;20437;-91
2023/01/14 05:58:21;;;;;;;21.35;2.92;;;5.90;97.30;;;;;;5109937;27;20748;-90
2023/01/14 06:06:51;;;;;;;21.27;3.00;;;6.00;97.50;;;;;;5109206;27;20398;-90
2023/01/14 06:09:18;;;;;;;24.50;3.70;;;6.00;97.50;;;;;;5037346;27;20494;-91
2023/01/14 06:12:02;;;;;;;22.48;3.00;;;6.00;97.50;;;;;;5092466;27;20399;-92
2023/01/14 06:14:34;;;;;;;22.52;3.45;;;6.00;97.50;;;;;;5091505;27;20402;-90
2023/01/14 06:17:05;;;;;;;23.58;4.10;;;6.00;97.50;;;;;;5092732;27;20398;-90
2023/01/14 06:19:30;;;;;;;24.98;4.05;;;6.00;97.40;;;;;;5092025;27;20394;-90
2023/01/14 06:21:56;;;;;;;22.65;3.88;;;5.90;97.40;;;;;;5092344;27;20403;-90
2023/01/14 06:24:22;;;;;;;24.10;3.97;;;6.00;97.40;;;;;;5109176;27;20391;-90
2023/01/14 06:26:47;;;;;;;23.67;3.80;;;6.00;97.50;;;;;;5092166;27;20420;-91
2023/01/14 06:29:13;;;;;;;24.73;4.10;;;6.00;97.40;;;;;;5092032;27;20406;-89
2023/01/14 06:31:40;;;;;;;23.98;4.60;;;6.00;97.40;;;;;;5091530;27;20402;-89
2023/01/14 06:34:06;;;;;;;27.05;4.07;;;6.00;97.30;;;;;;5092955;27;20450;-91
2023/01/14 06:36:34;;;;;;;21.65;3.58;;;6.00;97.20;;;;;;5091441;27;20454;-89
2023/01/14 06:39:00;;;;;;;25.00;4.18;;;6.00;97.20;;;;;;5109507;27;20757;-90
2023/01/14 06:41:26;;;;;;;26.35;4.55;;;6.00;97.20;;;;;;5091308;27;20390;-88
2023/01/14 06:43:52;;;;;;;25.05;4.65;;;6.00;97.10;;;;;;5108810;27;20406;-89
2023/01/14 06:46:17;;;;;;;25.15;5.18;;;6.10;97.20;;;;;;5091561;27;20491;-90
2023/01/14 06:48:44;;;;;;;32.30;5.47;;;6.20;97.20;;;;;;5090960;27;20395;-90
2023/01/14 06:51:13;;;;;;;26.80;5.50;;;6.10;97.10;;;;;;5092447;27;20429;-92
2023/01/14 06:53:40;;;;;;;25.48;4.90;;;6.10;97.20;;;;;;5090974;27;20430;-90
2023/01/14 06:56:08;;;;;;;27.85;5.38;;;6.00;97.10;;;;;;5091604;27;20415;-90
2023/01/14 06:58:34;;;;;;;27.33;5.80;;;6.10;97.00;;;;;;5090773;27;20407;-90
2023/01/14 07:01:01;;;;;;;26.40;5.80;;;6.10;97.10;;;;;;5091202;27;20909;-90
2023/01/14 07:03:28;;;;;;;29.40;6.45;;;6.10;97.10;;;;;;5091772;27;20390;-90
2023/01/14 07:05:53;;;;;;;27.17;6.67;;;6.10;97.10;;;;;;5091080;27;20813;-90
2023/01/14 07:08:20;;;;;;;32.37;6.80;;;6.30;97.20;;;;;;5091502;27;20490;-90
2023/01/14 07:10:50;;;;;;;31.13;6.65;;;6.40;97.20;;;;;;5107715;27;20409;-88
2023/01/14 07:13:20;;;;;;;24.67;6.03;;;6.20;97.20;;;;;;5091776;27;20399;-88
2023/01/14 07:15:47;;;;;;;31.70;7.97;;;6.20;97.10;;;;;;5107771;27;20493;-90
2023/01/14 07:18:13;;;;;;;29.45;7.90;;;6.30;97.50;;;;;;5091354;27;20497;-90
2023/01/14 07:20:39;;;;;;;34.47;7.20;;;6.30;97.10;;;;;;5090898;27;20832;-90
2023/01/14 07:23:05;;;;;;;28.13;7.30;;;6.30;97.10;;;;;;5090456;27;20395;-89
2023/01/14 07:25:31;;;;;;;33.33;7.35;;;6.30;97.10;;;;;;5107772;27;20919;-91
2023/01/14 07:27:56;;;;;;;32.27;8.13;;;6.40;97.10;;;;;;5090424;27;20407;-91
2023/01/14 07:30:22;;;;;;;30.33;7.03;;;6.40;97.00;;;;;;5108458;27;20401;-91
2023/01/14 07:32:48;;;;;;;32.15;7.38;;;6.40;97.00;;;;;;5090893;27;20415;-88
2023/01/14 07:35:14;;;;;;;30.27;7.67;;;6.40;97.00;;;;;;5090972;27;20418;-89
2023/01/14 07:37:39;;;;;;;30.10;7.47;;;6.40;97.00;;;;;;5090601;27;20991;-90
2023/01/14 07:40:06;;;;;;;33.75;8.45;;;6.40;97.40;;;;;;5090459;27;20758;-92
2023/01/14 07:42:31;;;;;;;30.20;7.43;;;6.40;97.20;;;;;;5090998;27;20498;-91
2023/01/14 07:44:57;;;;;;;29.13;7.43;;;6.50;97.20;;;;;;5090028;27;20470;-90
2023/01/14 07:47:23;;;;;;;31.52;7.45;;;6.50;97.10;;;;;;5091021;28;20405;-90
2023/01/14 07:49:48;;;;;;;28.40;6.63;;;6.50;97.20;;;;;;5089867;27;20489;-89
2023/01/14 07:52:14;;;;;;;29.90;7.43;;;6.50;97.20;;;;;;5107762;27;20438;-91
2023/01/14 07:54:41;;;;;;;32.95;7.07;;;6.50;97.20;;;;;;5089878;27;20809;-91
2023/01/14 07:57:12;;;;;;;30.98;6.93;;;6.50;97.20;;;;;;5107438;27;20398;-90
2023/01/14 07:59:38;;;;;;;31.20;6.68;;;6.60;97.20;;;;;;5090287;28;20405;-90
2023/01/14 08:02:05;;;;;;;30.58;6.85;;;6.60;97.20;;;;;;5090055;28;20623;-90
2023/01/14 08:04:32;;;;;;;32.60;7.23;;;6.50;97.30;;;;;;5090609;27;20427;-90
2023/01/14 08:06:58;;;;;;;36.28;8.35;;;6.60;97.50;;;;;;5089990;28;20402;-88
2023/01/14 08:09:25;;;;;;;33.13;7.70;;;6.50;97.70;;;;;;5091038;28;20427;-90
2023/01/14 08:11:51;;;;;;;33.43;7.60;;;6.50;97.70;;;;;;5105867;28;20399;-89
2023/01/14 08:14:17;;;;;;;31.70;7.05;;;6.50;97.80;;;;;;5090170;28;20403;-89
2023/01/14 08:16:42;;;;;;;34.00;7.13;;;6.50;97.90;;;;;;5106710;28;20879;-90
2023/01/14 08:19:09;;;;;;;32.10;6.90;;;6.60;98.00;;;;;;5090185;28;20510;-91
2023/01/14 08:21:35;;;;;;;37.17;7.50;;;6.50;98.10;;;;;;5090255;28;20386;-91
2023/01/14 08:24:01;;;;;;;35.80;7.20;;;6.40;98.20;;;;;;5089644;28;20417;-90
2023/01/14 08:26:26;;;;;;;42.47;6.90;;;6.40;98.40;;;;;;5090602;28;20812;-90
2023/01/14 08:28:52;;;;;;;31.80;6.27;;;6.40;98.50;;;;;;5089976;28;20394;-90
2023/01/14 08:31:17;;;;;;;33.00;6.18;;;6.40;98.50;;;;;;5091031;28;20410;-91
2023/01/14 08:33:44;;;;;;;34.20;5.90;;;6.30;98.60;;;;;;5089461;28;20402;-90
2023/01/14 08:36:13;;;;;;;31.40;6.53;;;6.30;98.60;;;;;;5090175;28;20981;-90
2023/01/14 08:38:41;;;;;;;31.65;6.07;;;6.30;98.70;;;;;;5089838;28;20896;-88
2023/01/14 08:41:10;;;;;;;37.03;6.45;;;6.30;98.70;;;;;;5089331;28;20451;-89
2023/01/14 08:43:36;;;;;;;39.30;7.38;;;6.30;98.80;;;;;;5090015;28;20693;-90
2023/01/14 08:46:04;;;;;;;36.70;6.82;;;6.30;98.80;;;;;;5089191;28;20391;-90
2023/01/14 08:48:29;;;;;;;38.10;7.13;;;6.30;98.90;;;;;;5090234;28;20399;-90
2023/01/14 08:51:03;;;;;;;36.20;7.47;;;6.30;99.00;;;;;;5089329;28;20397;-90
2023/01/14 08:53:30;;;;;;;33.58;6.28;;;6.20;99.00;;;;;;5090383;28;20966;-91
2023/01/14 08:55:59;;;;;;;41.93;7.67;;;6.20;99.10;;;;;;5106601;28;20767;-90
2023/01/14 08:58:28;;;;;;;34.28;7.53;;;6.20;99.10;;;;;;5089490;28;20410;-91
2023/01/14 09:01:03;;;;;;;36.45;7.13;;;6.20;99.20;;;;;;5090263;28;20402;-91
2023/01/14 09:03:30;;;;;;;33.33;6.47;;;6.20;99.20;;;;;;5106483;28;20418;-90
2023/01/14 09:06:00;;;;;;;32.13;5.80;;;6.20;99.30;;;;;;5090006;28;20968;-90
2023/01/14 09:19:41;;;;;;;24.58;5.57;;;6.20;99.30;;;;;;5106753;28;20398;-89
2023/01/14 09:22:09;;;;;;;25.10;5.38;;;6.20;99.30;;;;;;5086043;28;20889;-89
2023/01/14 09:24:35;;;;;;;27.60;5.82;;;6.20;99.30;;;;;;5093026;27;20399;-90
2023/01/14 09:27:00;;;;;;;26.87;5.57;;;6.30;99.70;;;;;;5093676;27;20402;-91
2023/01/14 09:29:26;;;;;;;25.88;5.38;;;6.40;99.40;;;;;;5092893;27;20401;-91
2023/01/14 09:31:52;;;;;;;25.20;4.75;;;6.50;99.50;;;;;;5093678;27;20995;-93
2023/01/14 09:34:18;;;;;;;27.00;5.20;;;6.60;99.50;;;;;;5092641;27;20403;-90
2023/01/14 09:36:43;;;;;;;26.73;5.57;;;6.40;99.50;;;;;;5110795;27;20415;-89
2023/01/14 09:39:09;;;;;;;24.67;5.43;;;6.30;99.60;;;;;;5092776;27;20399;-92
2023/01/14 09:41:42;;;;;;;25.23;5.20;;;6.30;99.60;;;;;;5093870;27;20395;-92
2023/01/14 09:44:10;;;;;;;21.25;4.30;;;6.00;99.60;;;;;;5110514;27;20439;-91
2023/01/14 09:46:35;;;;;;;21.70;4.57;;;6.30;99.90;;;;;;5109311;27;20438;-90
2023/01/14 09:49:04;;;;;;;18.88;4.25;;;6.20;99.60;;;;;;5093598;27;20387;-91
2023/01/14 09:51:56;;;;;;;17.38;4.00;;;6.30;99.60;;;;;;5092248;27;20407;-93
2023/01/14 09:54:40;;;;;;;15.57;3.78;;;6.40;99.70;;;;;;5093340;27;20418;-91
2023/01/14 09:57:16;;;;;;;18.77;4.05;;;6.30;99.70;;;;;;5093134;27;20505;-92
2023/01/14 09:59:51;;;;;;;17.90;4.40;;;6.40;99.70;;;;;;5092124;27;20760;-92
2023/01/14 10:02:26;;;;;;;19.38;4.70;;;6.40;99.70;;;;;;5093430;27;20494;-92
2023/01/14 10:05:14;;;;;;;16.13;4.18;;;6.40;99.70;;;;;;5092603;27;20403;-92
2023/01/14 10:07:41;;;;;;;17.88;4.00;;;6.40;99.70;;;;;;5092743;27;20502;-92
2023/01/14 10:10:29;;;;;;;13.32;3.50;;;6.50;99.80;;;;;;5092526;27;20394;-92
2023/01/14 10:12:57;;;;;;;15.82;4.55;;;6.50;99.70;;;;;;5091846;27;20398;-91
2023/01/14 10:15:23;;;;;;;15.68;3.88;;;6.50;99.70;;;;;;5093088;27;20419;-93
2023/01/14 10:17:54;;;;;;;14.43;4.32;;;6.60;99.70;;;;;;5092109;27;20966;-91
2023/01/14 10:20:30;;;;;;;14.43;4.00;;;6.70;99.70;;;;;;5092426;27;20952;-93
2023/01/14 10:23:11;;;;;;;13.23;4.10;;;6.70;99.70;;;;;;5092868;27;20406;-90
2023/01/14 10:25:38;;;;;;;10.38;3.50;;;6.70;99.70;;;;;;5091400;27;20395;-91
2023/01/14 10:28:12;;;;;;;9.07;3.10;;;6.80;99.80;;;;;;5092709;27;20478;-90
2023/01/14 10:30:39;;;;;;;10.90;3.03;;;6.80;99.70;;;;;;5091602;27;20399;-90
2023/01/14 10:33:06;;;;;;;10.47;3.43;;;6.80;99.70;;;;;;5091964;27;20398;-92
2023/01/14 10:35:37;;;;;;;7.30;2.65;;;7.40;99.80;;;;;;5091634;27;20425;-90
2023/01/14 10:38:04;;;;;;;8.77;3.00;;;6.90;99.70;;;;;;5091535;27;20898;-90
2023/01/14 10:40:31;;;;;;;7.78;2.50;;;7.00;99.70;;;;;;5092457;27;20758;-90
2023/01/14 10:42:59;;;;;;;6.93;2.10;;;7.00;99.60;;;;;;5091262;27;20405;-89
2023/01/14 10:45:25;;;;;;;6.97;1.60;;;7.10;99.60;;;;;;5092214;27;20401;-89
2023/01/14 10:47:56;;;;;;;8.48;2.35;;;7.30;99.60;;;;;;5108267;27;20421;-89
2023/01/14 10:50:24;;;;;;;6.28;1.88;;;7.10;99.50;;;;;;5092345;27;20802;-92
2023/01/14 10:52:52;;;;;;;7.57;2.23;;;7.00;99.50;;;;;;5091984;27;20765;-91
2023/01/14 10:55:22;;;;;;;7.80;2.63;;;7.40;99.50;;;;;;5091571;27;20424;-93
2023/01/14 10:58:11;;;;;;;8.30;2.90;;;7.20;99.40;;;;;;5092468;27;20893;-91
2023/01/14 11:00:38;;;;;;;8.80;2.57;;;7.20;99.40;;;;;;5091053;27;20418;-91
2023/01/14 11:03:08;;;;;;;6.78;2.55;;;7.30;99.30;;;;;;5092058;27;20481;-93
2023/01/14 11:05:40;;;;;;;6.90;2.30;;;7.30;99.40;;;;;;5090737;27;20402;-91
2023/01/14 11:08:23;;;;;;;8.98;3.10;;;7.20;99.40;;;;;;5091919;27;20445;-93
2023/01/14 11:10:58;;;;;;;6.43;2.90;;;7.20;99.50;;;;;;5091698;27;20419;-92
2023/01/14 11:13:26;;;;;;;6.55;3.33;;;7.30;99.50;;;;;;5107158;27;20402;-91
2023/01/14 11:15:51;;;;;;;6.78;2.67;;;7.20;99.60;;;;;;5091716;27;20461;-91
2023/01/14 11:18:36;;;;;;;7.00;2.97;;;7.30;99.70;;;;;;5110597;27;20412;-92
2023/01/14 11:21:15;;;;;;;7.32;2.78;;;7.20;99.80;;;;;;5091667;27;20403;-93
2023/01/14 11:23:52;;;;;;;7.63;2.57;;;7.20;99.80;;;;;;5091789;27;20909;-92
2023/01/14 11:26:31;;;;;;;6.82;2.88;;;7.30;99.80;;;;;;5091099;27;20402;-91
2023/01/14 11:29:24;;;;;;;8.07;3.40;;;7.20;99.80;;;;;;5091811;27;20963;-92
2023/01/14 11:31:54;;;;;;;6.90;2.90;;;7.30;99.80;;;;;;5091317;27;20439;-92
2023/01/14 11:34:27;;;;;;;7.88;2.53;;;7.30;99.90;;;;;;5090799;27;20437;-93
2023/01/14 11:37:06;;;;;;;4.70;2.78;;;7.50;99.90;;;;;;5091911;27;20757;-91
2023/01/14 11:39:34;;;;;;;7.50;2.67;;;7.30;99.90;;;;;;5107172;27;20481;-92
2023/01/14 11:42:02;;;;;;;6.78;2.50;;;7.30;99.80;;;;;;5091110;27;20399;-92
2023/01/14 11:44:29;;;;;;;4.75;2.13;;;7.40;99.90;;;;;;5089840;27;20391;-90
2023/01/14 11:47:13;;;;;;;6.28;2.70;;;7.30;99.90;;;;;;5090766;27;20499;-91
2023/01/14 11:49:39;;;;;;;6.20;2.45;;;7.40;99.90;;;;;;5108159;27;20399;-91
2023/01/14 11:52:15;;;;;;;7.40;2.92;;;7.40;99.90;;;;;;5090196;27;20911;-93
2023/01/14 11:54:43;;;;;;;6.68;3.22;;;7.90;99.90;;;;;;5091438;27;20769;-93
2023/01/14 11:57:15;;;;;;;6.53;2.97;;;7.20;99.90;;;;;;5106690;28;20403;-92
2023/01/14 11:59:42;;;;;;;6.13;2.70;;;7.50;99.90;;;;;;5108421;27;20753;-92
2023/01/14 12:02:24;;;;;;;6.18;2.40;;;7.40;99.90;;;;;;5090523;27;20390;-92
2023/01/14 12:05:03;;;;;;;8.05;3.40;;;7.40;99.90;;;;;;5089750;28;20399;-90
2023/01/14 12:07:35;;;;;;;5.78;2.72;;;7.40;99.90;;;;;;5090728;28;20402;-91
2023/01/14 12:10:06;;;;;;;7.45;2.80;;;7.40;99.90;;;;;;5090280;28;20449;-93
2023/01/14 12:18:36;;;;;;;7.28;3.05;;;7.50;99.90;;;;;;5106635;28;20406;-92
2023/01/14 12:21:05;;;;;;;6.70;2.35;;;7.60;99.90;;;;;;5108074;28;20505;-94
2023/01/14 12:23:38;;;;;;;6.70;2.58;;;7.60;99.90;;;;;;5089994;28;20436;-92
2023/01/14 12:26:15;;;;;;;5.43;2.45;;;7.70;99.90;;;;;;5090685;28;20451;-91
2023/01/14 12:28:44;;;;;;;6.15;2.78;;;7.70;99.90;;;;;;5090970;28;20954;-92
2023/01/14 12:31:41;;;;;;;4.57;2.30;;;7.70;99.90;;;;;;5089703;28;20881;-92
2023/01/14 12:34:37;;;;;;;4.75;2.53;;;7.70;99.90;;;;;;5071387;28;20407;-92
2023/01/14 12:37:18;;;;;;;6.55;2.40;;;7.70;99.90;;;;;;5090702;28;20786;-93
2023/01/14 12:45:59;;;;;;;4.72;1.80;;;7.70;99.90;;;;;;5062316;28;20404;-91
2023/01/14 12:48:26;;;;;;;4.35;1.75;;;7.90;99.90;;;;;;5096821;28;20944;-91
2023/01/14 12:51:05;;;;;;;4.15;1.70;;;8.00;99.90;;;;;;5090618;28;20401;-92
2023/01/14 12:53:51;;;;;;;3.75;1.60;;;8.00;99.90;;;;;;5106488;28;20406;-92
2023/01/14 12:56:25;;;;;;;4.93;1.80;;;8.10;99.90;;;;;;5090357;27;20426;-94
2023/01/14 12:58:57;;;;;;;4.10;1.33;;;8.30;99.90;;;;;;5111445;27;20552;-91
2023/01/14 13:01:26;;;;;;;2.80;1.30;;;8.10;99.90;;;;;;5093416;27;20395;-93
2023/01/14 13:03:57;;;;;;;3.80;1.55;;;8.40;99.90;;;;;;5094352;27;20994;-91
2023/01/14 13:06:30;;;;;;;3.60;1.30;;;8.40;99.90;;;;;;5093340;27;20478;-91
2023/01/14 13:08:59;;;;;;;3.33;1.10;;;8.70;99.90;;;;;;5094343;27;20765;-90
2023/01/14 13:11:28;;;;;;;3.97;1.37;;;8.60;99.90;;;;;;5110044;27;20944;-91
2023/01/14 13:13:57;;;;;;;2.80;1.02;;;8.50;99.90;;;;;;5093306;27;20442;-92
2023/01/14 13:16:40;;;;;;;4.18;1.20;;;9.00;99.90;;;;;;5093944;27;20515;-91
2023/01/14 13:19:24;;;;;;;3.85;1.20;;;8.60;99.90;;;;;;5093252;27;20409;-91
2023/01/14 13:22:04;;;;;;;3.22;1.27;;;8.60;99.90;;;;;;5093939;27;20445;-88
2023/01/14 13:24:57;;;;;;;3.20;1.27;;;8.70;99.90;;;;;;5093566;27;20402;-91
2023/01/14 13:27:49;;;;;;;3.10;1.10;;;8.70;99.90;;;;;;5092655;27;20407;-92
2023/01/14 13:30:18;;;;;;;3.50;1.58;;;8.80;99.90;;;;;;5088850;27;20410;-91
2023/01/14 13:33:06;;;;;;;3.35;1.88;;;9.00;99.90;;;;;;5093176;27;20921;-91
2023/01/14 13:35:34;;;;;;;2.42;1.10;;;8.90;99.90;;;;;;5092828;27;20437;-89
2023/01/14 13:38:17;;;;;;;2.22;1.20;;;9.10;99.90;;;;;;5093487;27;20486;-90
2023/01/14 13:40:51;;;;;;;3.05;1.50;;;9.10;99.90;;;;;;5092017;27;20485;-92
2023/01/14 13:43:25;;;;;;;2.70;0.90;;;9.10;99.90;;;;;;5093448;27;20505;-92